Tiempo atmosférico en la estación meteorológica de Jaén, Jaén (582 m.)



Fecha
DESCASC
Temp. máxima en grados centígrados (hora)
DESCASC
Temp. mínima en grados centígrados (hora)
DESCASC
Temp. media en grados centígrados
DESCASC
Racha de viento máxima en m/sg (hora)
DESCASC
Velocidad máxima media en intervalos de 10 minutos(hora)
DESCASC
Precipitaciones diarias en mm
DESCASC
Precipitaciones de 00:00 a 06:00 en mm
DESCASC
Precipitaciones de 06:00 a 12:00 en mm
DESCASC
Precipitaciones de 12:00 a 18:00 en mm
DESCASC
Precipitaciones de 18:00 a 24:00 en mm
DESCASC
17-09-2020 30.6 (16:20) 21.4 (06:30) 26 21.39 (21:00) 7.78 (21:00) 1 0 0 0.8 0.2
16-09-2020 31.7 (16:20) 19.7 (06:30) 25.7 7.78 (23:00) 4.44 (23:30) 0 0 0 0 0
15-09-2020 30.5 (15:20) 19.5 (06:50) 25 8.33 (01:00) 5 (01:00) 0 0 0 0 0
14-09-2020 33.6 (15:30) 23.6 (00:00) 28.6 13.06 (09:50) 6.67 (04:20) 0 0 0 0 0
13-09-2020 32.7 (17:00) 24.5 (00:00) 28.6 16.39 (01:30) 9.72 (01:20) 0 0 0 0 0
12-09-2020 35.5 (17:00) 20.6 (00:00) 28.1 -- (--) -- (--) 0 0 0 0 0
11-09-2020 33.3 (16:00) 19.4 (00:00) 26.3 6.67 (18:20) -- (--) 0 0 0 0 0
10-09-2020 32.3 (16:00) 18.4 (00:00) 25.3 -- (--) -- (--) 0 0 0 0 0
09-09-2020 30.4 (16:40) 17.6 (00:00) 24 -- (--) -- (--) 0 0 0 0 0
08-09-2020 29.7 (15:00) 21 (00:00) 25.4 -- (--) -- (--) 0 0 0 0 0
07-09-2020 33.1 (15:40) 19.9 (07:50) 26.5 8.33 (17:20) 4.72 (15:50) 0 0 0 0 0
06-09-2020 34.6 (17:10) 19.6 (00:00) 27.1 -- (--) -- (--) 0 0 0 0 0
05-09-2020 34.1 (16:30) 18.7 (00:00) 26.4 -- (--) -- (--) 0 0 0 0 0
04-09-2020 33.9 (17:20) 23.1 (00:00) 28.5 15.28 (04:20) 7.78 (00:50) 0 0 0 0 0
03-09-2020 33.2 (17:10) 19.4 (00:00) 26.3 -- (--) -- (--) 0 0 0 0 0
02-09-2020 31.9 (17:20) 17.2 (00:00) 24.6 6.39 (15:30) 3.89 (01:00) 0 0 0 0 0
01-09-2020 28 (17:10) 17.5 (00:00) 22.8 6.94 (15:10) 4.17 (14:20) 0 0 0 0 0
31-08-2020 30.8 (17:30) 18.1 (00:00) 24.4 -- (--) -- (--) 0 0 0 0 0
30-08-2020 28.5 (17:00) 16.6 (00:00) 22.6 -- (--) -- (--) 0 0 0 0 0
29-08-2020 27.1 (17:20) 17.4 (00:00) 22.3 11.67 (11:10) 7.22 (11:20) 0 0 0 0 0
28-08-2020 33.5 (16:20) 23.3 (00:00) 28.4 -- (--) -- (--) 0 0 0 0 0
27-08-2020 38.4 (16:50) 24.6 (00:00) 31.5 -- (--) -- (--) 0 0 0 0 0
26-08-2020 37.9 (17:00) 22.8 (00:00) 30.4 -- (--) -- (--) 0 0 0 0 0
25-08-2020 36.7 (17:00) 22.3 (00:00) 29.5 -- (--) -- (--) 0 0 0 0 0
24-08-2020 35.8 (17:00) 21 (00:00) 28.4 8.33 (17:50) 3.89 (17:50) 0 0 0 0 0
23-08-2020 36.6 (16:30) 22.9 (00:00) 29.7 11.39 (16:50) 5.83 (15:40) 0 0 0 0 0
22-08-2020 35.6 (16:10) 21.5 (00:00) 28.5 8.89 (17:30) 5 (17:30) 0 0 0 0 0
21-08-2020 35.7 (16:20) 19.6 (00:00) 27.7 11.67 (17:30) 6.67 (17:00) 0 0 0 0 0

Gráficas

Temp. máximas Temp. mínimas Temp. medias Precipitaciones Rachas de viento máximas Velocidades máximas media en intervalos de 10 minutos

Datos horarios

Fecha y hora oficial Temperatura (ºC) Velocidad del viento (km/h) Dirección del viento Racha (km/h) Dirección de racha Precipitación (mm) Presión (hPa) Tendencia (hPa) Humedad (%)
2020-09-19 23:00:00 16.5 5 Sudoeste 12 Sudoeste 0 953.3 1.6 75
2020-09-19 22:00:00 17 4 Sur 12 Sudeste 0 952.9 1 78
2020-09-19 21:00:00 17.4 5 Sur 22 Sur 0 952.1 0.3 71
2020-09-19 20:00:00 18.8 13 Sudoeste 26 Oeste 0 951.7 -0.1 65
2020-09-19 19:00:00 18.9 5 Oeste 23 Oeste 0 951.9 0.2 80
2020-09-19 18:00:00 18.1 12 Oeste 22 Oeste 1.8 951.8 -0.2 92
2020-09-19 17:00:00 18 12 Noroeste 23 Noroeste 1.8 951.8 -0.7 92
2020-09-19 16:00:00 20.2 9 Norte 24 Noroeste 0 951.7 -0.9 72
2020-09-19 15:00:00 20.7 5 Este 12 Este 0.2 952 -0.7 71
2020-09-19 14:00:00 20.6 4 Este 13 Norte 0 952.5 0.1 69
2020-09-19 13:00:00 20.8 5 Norte 15 Norte 0 952.6 0.5 66
2020-09-19 12:00:00 21.2 7 Nordeste 16 Nordeste 0 952.7 1 64
2020-09-19 11:00:00 21.1 4 Este 16 Sudeste 0 952.4 -- 64
2020-09-19 10:00:00 19 4 Norte 19 Noroeste 0 952.1 -- 68
2020-09-19 09:00:00 18.6 3 Oeste 22 Sudoeste 0 951.7 -- 61
2020-09-19 08:00:00 18.4 9 Sudoeste 19 Sudoeste 0 951.1 -- 59
2020-09-19 07:00:00 18.7 6 Sudeste 20 Sudeste 0 950.7 -- 61
2020-09-19 06:00:00 18.9 9 Sudoeste 27 Sudoeste 0 950.4 -- 58
2020-09-19 05:00:00 18.4 7 Oeste 23 Sudoeste 0 950.5 -- 64
2020-09-19 04:00:00 19.2 11 Sudoeste 27 Sudoeste 0 950.5 -- 60
2020-09-19 03:00:00 19.6 11 Sur 32 Oeste 0 950.4 -- 58
2020-09-19 02:00:00 19.9 12 Sur 40 Sudeste 0 950.6 -- 56
2020-09-19 01:00:00 20.1 10 Sur 32 Sudeste 0 950.4 -- 56
2020-09-19 00:00:00 20.6 10 Sur 45 Sudoeste 0 950.7 -- 53
2020-09-18 23:00:00 21.2 9 Sudoeste 27 Sur 0 950.5 -- 51
2020-09-18 22:00:00 21.7 9 Sur 45 Sudeste 0 949.6 -- 49
2020-09-18 21:00:00 22.4 22 Sur 54 Sur 0 948.4 -- 50
2020-09-18 20:00:00 23.3 7 Sudoeste 47 Sur 0 948 -- 51
2020-09-18 19:00:00 24.5 14 Sur 46 Sudeste 0 947.2 -- 45
2020-09-18 18:00:00 25.6 11 Sudeste 46 Sur 0 946.4 -- 42
2020-09-18 17:00:00 25.4 11 Sur 41 Este 0 946.2 -- 45
2020-09-18 16:00:00 25 14 Sudeste 64 Sudeste 0 946 -- 47
2020-09-18 15:00:00 25.4 15 Sur 64 Sudeste 0 946 -- 44
2020-09-18 14:00:00 26.7 25 Sudeste 51 Sur 0 946.3 -- 41
2020-09-18 13:00:00 25.5 23 Sudeste 57 Sudeste 0 947.1 -- 43
2020-09-18 12:00:00 24.3 21 Sur 51 Sur 0 947.3 -- 43
2020-09-18 11:00:00 23.8 21 Sur 44 Sur 0 946.5 -- 47
2020-09-18 10:00:00 22.4 5 Sudeste 39 Sur 0 946.5 -- 57
2020-09-18 09:00:00 21.8 15 Sudeste 31 Sur 0 946.5 -- 58
2020-09-18 08:00:00 21.4 3 Noroeste 24 Sudoeste 0 946.8 -- 58
2020-09-18 07:00:00 22.3 18 Sudoeste 41 Sudoeste 0 946.4 -- 54
2020-09-18 06:00:00 22.4 13 Sudeste 58 Sudeste 0 946.3 -- 53
2020-09-18 05:00:00 22.5 27 Sur 69 Sur 0 946.3 -- 50
2020-09-18 04:00:00 22.6 31 Sur 76 Sudeste 0 946.9 -- 48
2020-09-18 03:00:00 22.9 27 Sur 60 Sudeste 0 947.5 -- 46
2020-09-18 02:00:00 23.3 26 Sur 71 Sur 0 948 -- 44
2020-09-18 01:00:00 23.8 22 Sur 70 Sudoeste 0 948.1 -- 43
2020-09-18 00:00:00 23.9 27 Sudeste 62 Sur 0 948.6 -- 41
2020-09-17 23:00:00 24 19 Sur 59 Sur 0 949.1 -- 42
2020-09-17 22:00:00 24.6 22 Sur 66 Sudeste 0 947.9 -- 39
2020-09-17 21:00:00 26.6 28 Sudeste 77 Sudeste 0.2 947.7 -- 35
2020-09-17 20:00:00 27.6 14 Sur 38 Sudeste 0 946.7 -- 37
2020-09-17 19:00:00 27.2 12 Sudoeste 28 Sudeste 0 946.4 -- 40
2020-09-17 18:00:00 25.5 16 Sudoeste 35 Sur 0.8 947.1 -- 55
2020-09-17 17:00:00 29.9 12 Sur 41 Sudeste 0 946.5 -- 32
2020-09-17 16:00:00 30.2 9 Sudeste 40 Sudeste 0 947.2 -- 31
2020-09-17 15:00:00 29 15 Sudeste 48 Sudeste 0 948.3 -- 35
2020-09-17 14:00:00 28.5 13 Sur 49 Sudeste 0 948.6 -- 36
2020-09-17 13:00:00 28 14 Sudeste 54 Sur 0 949 -- 37
2020-09-17 12:00:00 27.3 11 Sur 36 Sudeste 0 949 -- 39
2020-09-17 11:00:00 25.7 19 Sur 49 Sudeste 0 949.1 -- 42
2020-09-17 10:00:00 25.2 13 Sudeste 48 Sur 0 949 -- 44
2020-09-17 09:00:00 24.9 17 Sur 52 Sur 0 949 -- 45
2020-09-17 08:00:00 24.4 11 Sudeste 47 Sur 0 948.8 -- 47
2020-09-17 07:00:00 23.4 16 Sudeste 38 Sudeste 0 948.3 -- 50
2020-09-17 06:00:00 21.8 16 Oeste 41 Oeste 0 949 -- 59
2020-09-17 05:00:00 24.2 9 Nordeste 27 Sudeste 0 948.5 -- 47
2020-09-17 04:00:00 24.9 10 Sudeste 30 Sudeste 0 948.5 -- 42
2020-09-17 03:00:00 23.1 12 Sur 23 Sur 0 949.3 -- 53
2020-09-17 02:00:00 22.7 13 Sur 31 Sudeste 0 949.9 -- 58
2020-09-17 01:00:00 23.7 18 Sur 40 Sudeste 0 950.8 -- 48
2020-09-17 00:00:00 24.1 4 Sur 28 Oeste 0 950.7 -- 45
2020-09-16 23:00:00 25.6 16 Noroeste 28 Noroeste 0 950.7 -- 38
2020-09-16 22:00:00 25.9 6 Sudoeste 10 Oeste 0 950.2 -- 36
2020-09-16 21:00:00 27 7 Oeste 18 Oeste 0 949.5 -- 35
2020-09-16 20:00:00 28.2 12 Oeste 23 Noroeste 0 949.2 -- 32
2020-09-16 19:00:00 29.3 14 Noroeste 22 Noroeste 0 949 -- 34
2020-09-16 18:00:00 30.7 8 Oeste 21 Noroeste 0 948.8 -- 34
2020-09-16 17:00:00 30.7 12 Noroeste 21 Noroeste 0 949.1 -- 33
2020-09-16 16:00:00 31.2 8 Noroeste 16 Noroeste 0 949.7 -- 33
2020-09-16 15:00:00 29.5 6 Norte 16 Noroeste 0 950.7 -- 38
2020-09-16 14:00:00 29.2 5 Noroeste 14 Noroeste 0 951.2 -- 38
2020-09-16 13:00:00 27.8 7 Norte 12 Norte 0 952.1 -- 42
2020-09-16 12:00:00 26.3 4 Este 11 Este 0 952.5 -- 46
2020-09-16 11:00:00 24.7 5 Este 11 Este 0 952.8 -- 49
2020-09-16 10:00:00 22.5 5 Norte 7 Nordeste 0 953.1 -- 57
2020-09-16 09:00:00 21.2 3 Noroeste 8 Sur 0 953.1 -- 60
2020-09-16 08:00:00 20.5 6 Sudeste 11 Sudeste 0 952.8 -- 61
2020-09-16 07:00:00 19.9 6 Sudeste 10 Sudeste 0 953.2 -- 62
2020-09-16 06:00:00 20 2 Sur 7 Sudeste 0 953.4 -- 62
2020-09-16 05:00:00 21.1 3 Sudeste 8 Sudoeste 0 953.3 -- 58
2020-09-16 04:00:00 21.2 3 Sudoeste 5 Oeste 0 953.5 -- 56
2020-09-16 03:00:00 22.4 3 Sur 10 Sudoeste 0 953.8 -- 53
2020-09-16 02:00:00 23.2 8 Sudoeste 10 Oeste 0 954 -- 49
2020-09-16 01:00:00 22.8 3 Sudoeste 10 Sur 0 953.9 -- 50
2020-09-16 00:00:00 23.5 4 Sudoeste 10 Sudoeste 0 953.9 -- 47
2020-09-15 23:00:00 24.2 3 Sudoeste 12 Sudoeste 0 954 -- 51
2020-09-15 22:00:00 25.2 8 Oeste 14 Oeste 0 953.6 -- 49
2020-09-15 21:00:00 25.9 9 Oeste 17 Noroeste 0 952.9 -- 47
2020-09-15 20:00:00 27.6 10 Noroeste 22 Noroeste 0 952.6 -- 43
2020-09-15 19:00:00 28.9 8 Noroeste 21 Noroeste 0 952.6 -- 41
2020-09-15 18:00:00 29.4 11 Noroeste 22 Noroeste 0 952.7 -- 40
2020-09-15 17:00:00 29.4 13 Noroeste 24 Noroeste 0 953 -- 41
2020-09-15 16:00:00 30.2 9 Noroeste 21 Noroeste 0 953.4 -- 39
2020-09-15 15:00:00 30.1 9 Norte 17 Norte 0 954.1 -- 41
2020-09-15 14:00:00 28.4 6 Norte 17 Norte 0 954.7 -- 45
2020-09-15 13:00:00 26.9 4 Nordeste 15 Sudeste 0 955.4 -- 49
2020-09-15 12:00:00 25.2 6 Nordeste 14 Este 0 955.9 -- 54
2020-09-15 11:00:00 24 5 Este 12 Este 0 956.1 -- 60
2020-09-15 10:00:00 21.2 3 Nordeste 8 Nordeste 0 955.8 -- 72
2020-09-15 09:00:00 20.3 4 Oeste 12 Sudoeste 0 955.6 -- 74
2020-09-15 08:00:00 20 5 Oeste 18 Sur 0 955.4 -- 69
2020-09-15 07:00:00 19.6 8 Sudeste 12 Sur 0 955 -- 75
2020-09-15 06:00:00 20.1 4 Sur 10 Sudoeste 0 955.1 -- 67
2020-09-15 05:00:00 20.4 2 Sudoeste 15 Oeste 0 955.1 -- 65
2020-09-15 04:00:00 20.6 5 Sudoeste 9 Oeste 0 955.3 -- 59
2020-09-15 03:00:00 21.7 4 Sudeste 19 Oeste 0 955.2 -- 54
2020-09-15 02:00:00 22.7 4 Oeste 30 Oeste 0 955.3 -- 49
2020-09-15 01:00:00 23.8 18 Oeste 30 Oeste 0 954.9 -- 46
2020-09-15 00:00:00 24.8 15 Oeste 27 Noroeste 0 954.3 -- 43
2020-09-14 23:00:00 25.6 9 Oeste 14 Oeste 0 954.1 -- 42
2020-09-14 22:00:00 26 6 Sudoeste 13 Sudoeste 0 953.6 -- 37
2020-09-14 21:00:00 26.9 9 Sudoeste 15 Noroeste 0 952.6 -- 36
2020-09-14 20:00:00 28.1 7 Oeste 14 Noroeste 0 952.4 -- 34
2020-09-14 19:00:00 29.9 8 Norte 22 Noroeste 0 952.4 -- 30
2020-09-14 18:00:00 30.1 5 Noroeste 16 Norte 0 952.9 -- 29
2020-09-14 17:00:00 30.6 14 Noroeste 24 Noroeste 0 953.3 -- 28
2020-09-14 16:00:00 32.4 10 Norte 23 Norte 0 953.5 -- 25
2020-09-14 15:00:00 33.2 5 Nordeste 21 Norte 0 953.9 -- 23
2020-09-14 14:00:00 32 9 Este 18 Este 0 954.1 -- 24
2020-09-14 13:00:00 29.5 7 Este 27 Este 0 954.8 -- 26
2020-09-14 12:00:00 27.9 13 Este 28 Este 0 955.1 -- 29
2020-09-14 11:00:00 25.8 13 Sudeste 33 Sur 0 955 -- 32
2020-09-14 10:00:00 25 12 Sudeste 47 Sudeste 0 954.6 -- 35
2020-09-14 09:00:00 24.4 19 Sur 33 Sur 0 954.4 -- 37
2020-09-14 08:00:00 23.7 18 Sur 34 Sur 0 953.9 -- 39
2020-09-14 07:00:00 23.7 12 Sudeste 33 Sur 0 953.4 -- 40
2020-09-14 06:00:00 23.9 22 Sur 40 Sudeste 0 953.5 -- 41
2020-09-14 05:00:00 23.9 18 Sudeste 38 Sur 0 953.6 -- 43
2020-09-14 04:00:00 24 17 Sudeste 35 Sudeste 0 953.7 -- 43
2020-09-14 03:00:00 24.7 13 Sudeste 36 Sudeste 0 954.7 -- 42
2020-09-14 02:00:00 24.9 21 Sudeste 36 Sudeste 0 954.9 -- 41
2020-09-14 01:00:00 25.3 13 Sur 33 Sudeste 0 955.3 -- 41
2020-09-14 00:00:00 26 16 Sudeste 36 Sudeste 0 954.9 -- 37
2020-09-13 23:00:00 26.7 21 Sudeste 36 Sudeste 0 954.7 -- 39
2020-09-13 22:00:00 27.6 15 Sudeste 30 Sudeste 0 953.9 -- 35
2020-09-13 21:00:00 28.8 14 Sur 36 Sudeste 0 953 -- 29
2020-09-13 20:00:00 29.9 16 Sudeste 33 Sudeste 0 952.9 -- 26
2020-09-13 19:00:00 31.3 15 Sudeste 30 Este 0 952.7 -- 23
2020-09-13 18:00:00 31.4 15 Sudeste 31 Este 0 952.7 -- 21
2020-09-13 17:00:00 32.7 17 Sudeste 33 Este 0 952.8 -- 20
2020-09-13 16:00:00 31.8 17 Sudeste 32 Este 0 953.1 -- 22
2020-09-13 15:00:00 31 16 Sudeste 30 Este 0 953.6 -- 23
2020-09-13 14:00:00 31.6 18 Sudeste 40 Este 0 953.7 -- 20
2020-09-13 13:00:00 31.1 25 Sudeste 41 Este 0 953.8 -- 21
2020-09-13 12:00:00 30.2 22 Sudeste 48 Este 0 954.2 -- 21
2020-09-13 11:00:00 29 23 Sudeste 49 Sudeste 0 953.8 -- 24
2020-09-13 10:00:00 26.7 29 Sudeste 55 Sudeste 0 953.3 -- 28
2020-09-13 09:00:00 25.7 23 Sudeste 43 Sudeste 0 953.1 -- 31
2020-09-13 08:00:00 24.8 17 Sudeste 47 Este 0 953 -- 32
2020-09-13 07:00:00 24.6 20 Sudeste 38 Sur 0 952.7 -- 33
2020-09-13 06:00:00 24.7 16 Sudeste 32 Sur 0 952.4 -- 33
2020-09-13 05:00:00 24.9 15 Sudeste 34 Sudeste 0 952.6 -- 34
2020-09-13 04:00:00 25.2 13 Sur 46 Sudeste 0 952.6 -- 34
2020-09-13 03:00:00 25.8 25 Sudeste 49 Este 0 952.6 -- 32
2020-09-13 02:00:00 26.2 28 Sudeste 59 Sudeste 0 953 -- 32
2020-09-13 01:00:00 26.8 25 Sudeste 40 Sudeste 0 953 -- 29
2020-09-13 00:00:00 28.2 9 Sudeste 26 Sudeste 0 952.3 -- 27
2020-09-12 23:00:00 29.3 11 Sudeste 32 Sur 0 951.6 -- 24
2020-09-12 22:00:00 29.8 13 Sudeste 34 Sudeste 0 950.9 -- 24
2020-09-12 21:00:00 30.5 20 Sudeste 35 Sudeste 0 949.9 -- 23
2020-09-12 20:00:00 32.1 -- -- -- -- 0 949.6 -- 20
2020-09-12 19:00:00 33.7 -- -- -- -- 0 949.3 -- 18
2020-09-12 18:00:00 34.6 -- -- -- -- 0 949.4 -- 18
2020-09-12 17:00:00 35.1 6 Norte 19 Norte 0 949.2 -- 18
2020-09-12 16:00:00 35.2 -- -- 19 Nordeste 0 949.6 -- 18
2020-09-12 15:00:00 34.7 8 Norte 15 Norte 0 949.9 -- 19
2020-09-12 14:00:00 33 5 Este 15 Norte 0 950.4 -- 22
2020-09-12 13:00:00 31.3 5 Nordeste 13 Sudeste 0 950.7 -- 25
2020-09-12 12:00:00 29.1 7 Este 15 Este 0 950.9 -- 28
2020-09-12 11:00:00 27.9 6 Este 18 Este 0 950.7 -- 28
2020-09-12 10:00:00 26.2 9 Sudeste 17 Este 0 950.5 -- 31
2020-09-12 09:00:00 23.6 5 Este 10 Sudeste 0 950.3 -- 38
2020-09-12 08:00:00 22.2 6 Sudeste 15 Sur 0 949.7 -- 39
2020-09-12 07:00:00 20.7 3 Sur 6 Oeste 0 949.3 -- 42
2020-09-12 06:00:00 22 3 Noroeste 7 Sur 0 949 -- 39
2020-09-12 05:00:00 21.6 2 Sur 9 Sudoeste 0 949.2 -- 40
2020-09-12 04:00:00 23 7 Sudoeste 15 Oeste 0 949.1 -- 37
2020-09-12 03:00:00 24.2 4 Oeste 15 Noroeste 0 949.1 -- 34
2020-09-12 02:00:00 26.4 11 Sur 21 Sur 0 948.8 -- 30
2020-09-12 01:00:00 25.6 6 Sur 15 Sudoeste 0 948.8 -- 31
2020-09-12 00:00:00 26.3 9 Oeste 15 Oeste 0 948.5 -- 29
2020-09-11 23:00:00 26.8 7 Sudoeste 13 Sudoeste 0 948.2 -- 28
2020-09-11 22:00:00 26.9 3 Sudoeste 9 Sudoeste 0 947.9 -- 27
2020-09-11 21:00:00 27.7 7 Sudoeste 9 Sudoeste 0 947.1 -- 26
2020-09-11 20:00:00 30.3 5 Noroeste 14 Noroeste 0 947 -- 23
2020-09-11 19:00:00 31 6 Noroeste 24 Sur 0 947 -- 23
2020-09-11 18:00:00 31.6 8 Noroeste 18 Norte 0 947.2 -- 23
2020-09-11 17:00:00 32.5 4 Noroeste 23 Norte 0 947.4 -- 22
2020-09-11 16:00:00 33 8 Norte -- -- 0 948 -- 22
2020-09-11 15:00:00 32.4 8 Norte 15 Norte 0 948.5 -- 24
2020-09-11 14:00:00 30.8 5 Norte 15 Nordeste 0 949.1 -- 27
2020-09-11 13:00:00 29.7 5 Nordeste 12 Norte 0 949.7 -- 29
2020-09-11 12:00:00 27.7 6 Nordeste 13 Sudeste 0 950 -- 31
2020-09-11 11:00:00 26.5 5 Este 13 Este 0 950 -- 32
2020-09-11 10:00:00 25.3 4 Este 10 Sudeste 0 949.6 -- 33
2020-09-11 09:00:00 21.6 2 Sudeste 5 Sudeste 0 949.3 -- 41
2020-09-11 08:00:00 19.4 3 Sudoeste 6 Oeste 0 949 -- 43
2020-09-11 07:00:00 20.3 4 Sudoeste 10 Oeste 0 948.8 -- 38
2020-09-11 06:00:00 20.8 6 Oeste 9 Oeste 0 948.6 -- 39
2020-09-11 05:00:00 22.2 2 Sur 7 Sudoeste 0 948.7 -- 37
2020-09-11 04:00:00 23.8 4 Sudoeste 15 Sur 0 948.7 -- 34
2020-09-11 03:00:00 25 12 Sur 15 Sur 0 949 -- 29
2020-09-11 02:00:00 24.1 8 Sudoeste 10 Sur 0 949.5 -- 34
2020-09-11 01:00:00 24.2 3 Sudoeste 12 Sudoeste 0 949.8 -- 30
2020-09-11 00:00:00 25.5 9 Oeste 13 Oeste 0 949.7 -- 26
2020-09-10 23:00:00 25.5 6 Sudoeste 11 Sur 0 949.5 -- 28
2020-09-10 22:00:00 26.2 10 Sur 12 Sur 0 949.2 -- 26
2020-09-10 21:00:00 26.9 7 Sur 10 Sur 0 948.8 -- 25
2020-09-10 20:00:00 29.2 -- -- -- -- 0 948.9 -- 21
2020-09-10 19:00:00 30.3 -- -- -- -- 0 949.1 -- 19
2020-09-10 18:00:00 31.5 -- -- -- -- 0 949.6 -- 19
2020-09-10 17:00:00 32.1 -- -- -- -- 0 950.2 -- 20
2020-09-10 16:00:00 32.3 4 Norte 21 Norte 0 950.8 -- 20
2020-09-10 15:00:00 31.4 5 Norte -- -- 0 951.5 -- 21
2020-09-10 14:00:00 29.9 6 Norte 15 Nordeste 0 952.2 -- 28
2020-09-10 13:00:00 28.4 4 Norte 11 Oeste 0 953.1 -- 32
2020-09-10 12:00:00 26.5 3 Nordeste 10 Nordeste 0 953.7 -- 35
2020-09-10 11:00:00 24.7 4 Nordeste 9 Este 0 953.8 -- 38
2020-09-10 10:00:00 21.9 4 Norte 8 Norte 0 953.8 -- 45
2020-09-10 09:00:00 20.3 3 Noroeste 6 Sudoeste 0 953.5 -- 49
2020-09-10 08:00:00 18.4 3 Sudoeste 6 Sudoeste 0 953 -- 51
2020-09-10 07:00:00 18.6 3 Sudoeste 6 Sur 0 952.5 -- 50
2020-09-10 06:00:00 19.3 3 Sur 8 Sudeste 0 952.6 -- 47
2020-09-10 05:00:00 20.6 4 Sur 10 Oeste 0 952.5 -- 43
2020-09-10 04:00:00 22.2 6 Sur 14 Sudoeste 0 952.5 -- 38
2020-09-10 03:00:00 22.7 9 Oeste 13 Oeste 0 952.7 -- 34
2020-09-10 02:00:00 23.8 7 Sur 10 Sur 0 953 -- 32
2020-09-10 01:00:00 24 9 Sudoeste 16 Norte 0 953.3 -- 35
2020-09-10 00:00:00 24.4 7 Oeste 15 Norte 0 953.5 -- 35
2020-09-09 23:00:00 24.2 7 Sudoeste 10 Sudoeste 0 953 -- 34
2020-09-09 22:00:00 24.6 7 Sudoeste 11 Oeste 0 952.8 -- 32
2020-09-09 21:00:00 25.5 8 Sudoeste 11 Sudoeste 0 952.1 -- 31
2020-09-09 20:00:00 28.1 5 Noroeste 17 Noroeste 0 951.7 -- 28
2020-09-09 19:00:00 29.1 8 Noroeste -- -- 0 951.8 -- 25
2020-09-09 18:00:00 30 -- -- -- -- 0 951.8 -- 24
2020-09-09 17:00:00 30 -- -- -- -- 0 952.1 -- 26
2020-09-09 16:00:00 30.1 9 Norte -- -- 0 952.5 -- 30
2020-09-09 15:00:00 29 -- -- -- -- 0 953.1 -- 35
2020-09-09 14:00:00 28.3 4 Norte 19 Norte 0 953.8 -- 36
2020-09-09 13:00:00 27.3 6 Norte 18 Sudeste 0 954.5 -- 39
2020-09-09 12:00:00 26 6 Este 15 Sudeste 0 954.8 -- 41
2020-09-09 11:00:00 24.2 6 Este 16 Sudeste 0 955.2 -- 46
2020-09-09 10:00:00 22.3 10 Sudeste 24 Este 0 954.6 -- 51
2020-09-09 09:00:00 20.3 9 Sudeste 22 Sudeste 0 954.3 -- 57
2020-09-09 08:00:00 18.1 8 Sudeste 12 Sudeste 0 954 -- 65
2020-09-09 07:00:00 17.7 2 Sudoeste 6 Oeste 0 953.9 -- 67
2020-09-09 06:00:00 18.5 3 Este 9 Sudeste 0 953.7 -- 63
2020-09-09 05:00:00 19.4 6 Sur 9 Este 0 953.5 -- 59
2020-09-09 04:00:00 20.4 6 Sudoeste 17 Noroeste 0 953.7 -- 55
2020-09-09 03:00:00 21.8 9 Sudeste 31 Sudeste 0 953.7 -- 51
2020-09-09 02:00:00 21.7 19 Sur 36 Sur 0 953.5 -- 53
2020-09-09 01:00:00 22.1 18 Sur 32 Sur 0 953.7 -- 53
2020-09-09 00:00:00 22.7 14 Sudeste 33 Sudeste 0 953.5 -- 52
2020-09-08 23:00:00 24.2 17 Sudeste 33 Sudeste 0 952.9 -- 46
2020-09-08 22:00:00 24.8 4 Sur 18 Sudeste 0 952.4 -- 40
2020-09-08 21:00:00 25.5 10 Sur -- -- 0 951.8 -- 38
2020-09-08 20:00:00 27.8 -- -- -- -- 0 951.5 -- 32
2020-09-08 19:00:00 28.5 -- -- -- -- 0 951.4 -- 32
2020-09-08 18:00:00 29.6 -- -- -- -- 0 951.4 -- 32
2020-09-08 17:00:00 28.7 9 Norte 21 Norte 0 951.6 -- 36
2020-09-08 16:00:00 28.4 9 Norte -- -- 0 951.9 -- 37
2020-09-08 15:00:00 29 -- -- -- -- 0 952.3 -- 38
2020-09-08 14:00:00 29.1 5 Este 18 Este 0 952.7 -- 38
2020-09-08 13:00:00 26.8 5 Nordeste 18 Norte 0 953.1 -- 44
2020-09-08 12:00:00 25.9 6 Noroeste 19 Norte 0 953.3 -- 47
2020-09-08 11:00:00 24.7 6 Norte 12 Nordeste 0 953.4 -- 49
2020-09-08 10:00:00 22.7 5 Norte 12 Noroeste 0 953.3 -- 51
2020-09-08 09:00:00 22.4 5 Sudeste 21 Sudeste 0 952.8 -- 58
2020-09-08 08:00:00 21.2 13 Sudeste 20 Sudeste 0 952.2 -- 62
2020-09-08 07:00:00 21.5 13 Sur 22 Sur 0 951.7 -- 60
2020-09-08 06:00:00 22 11 Sur 23 Sur 0 951.4 -- 57
2020-09-08 05:00:00 22.5 13 Sur 24 Este 0 951.3 -- 50
2020-09-08 04:00:00 23 10 Sudeste 28 Sudeste 0 951 -- 49
2020-09-08 03:00:00 21.7 9 Sur 15 Sur 0 951.3 -- 25
2020-09-08 02:00:00 22 5 Sudoeste 9 Sudoeste 0 951.6 -- 23
2020-09-08 01:00:00 23.5 3 Oeste 11 Sudeste 0 951.8 -- 24
2020-09-08 00:00:00 25 7 Sudeste 14 Sudeste 0 951.6 -- 24
2020-09-07 23:00:00 26.1 5 Este 15 Este 0 951.5 -- 25
2020-09-07 22:00:00 26.8 3 Sudeste 17 Este 0 950.7 -- 24
2020-09-07 21:00:00 28.1 4 Este 14 Este 0 949.8 -- 23
2020-09-07 20:00:00 29.6 5 Nordeste 28 Norte 0 949.3 -- 21
2020-09-07 19:00:00 31.9 12 Noroeste 28 Norte 0 948.5 -- 25
2020-09-07 18:00:00 32.8 10 Norte 30 Noroeste 0 948.5 -- 24
2020-09-07 17:00:00 32.9 13 Noroeste 25 Norte 0 948.7 -- 24
2020-09-07 16:00:00 32.7 13 Noroeste 27 Noroeste 0 949 -- 24
2020-09-07 15:00:00 32.2 -- -- -- -- 0 949.6 -- 31
2020-09-07 14:00:00 30.7 6 Noroeste 17 Nordeste 0 950.2 -- 36
2020-09-07 13:00:00 29 5 Nordeste 13 Norte 0 950.8 -- 41
2020-09-07 12:00:00 27 4 Norte 11 Nordeste 0 951 -- 45
2020-09-07 11:00:00 25.6 5 Nordeste 10 Norte 0 950.8 -- 49
2020-09-07 10:00:00 23.5 5 Este 12 Sudeste 0 950.4 -- 55
2020-09-07 09:00:00 21.8 8 Este 13 Este 0 950.2 -- 58
2020-09-07 08:00:00 20.1 5 Sudeste 7 Sudeste 0 949.8 -- 57
2020-09-07 07:00:00 20.7 4 Oeste 7 Oeste 0 949.5 -- 52
2020-09-07 06:00:00 21.4 3 Sur 11 Sudoeste 0 949.2 -- 51
2020-09-07 05:00:00 22.5 4 Sudeste 8 Sur 0 949.3 -- 47
2020-09-07 04:00:00 22.7 4 Sudoeste 8 Sudoeste 0 949.6 -- 46
2020-09-07 03:00:00 24.1 3 Noroeste 11 Oeste 0 949.6 -- 43
2020-09-07 02:00:00 26.5 6 Sudeste 18 Sur 0 949.5 -- 37
2020-09-07 01:00:00 27.1 4 Sudoeste 18 Sudoeste 0 949.4 -- 35
2020-09-07 00:00:00 27.4 10 Oeste 16 Oeste 0 948.9 -- 34
2020-09-06 23:00:00 28.9 9 Oeste 22 Oeste 0 948.6 -- 30
2020-09-06 22:00:00 29.3 12 Oeste 21 Oeste 0 948.3 -- 32
2020-09-06 21:00:00 29.5 10 Oeste 15 Oeste 0 947.8 -- 26
2020-09-06 20:00:00 31.9 8 Oeste 19 Noroeste 0 947.5 -- 22
2020-09-06 19:00:00 33.2 8 Norte 18 Noroeste 0 947.5 -- 20
2020-09-06 18:00:00 34.1 9 Noroeste -- -- 0 947.7 -- 19
2020-09-06 17:00:00 34.4 7 Norte -- -- 0 948.1 -- 20
2020-09-06 16:00:00 33.9 5 Norte 21 Norte 0 948.6 -- 21
2020-09-06 15:00:00 33 6 Nordeste 19 Nordeste 0 949.3 -- 24
2020-09-06 14:00:00 31.9 8 Norte 15 Norte 0 949.7 -- 30
2020-09-06 13:00:00 30 5 Nordeste 11 Este 0 950.3 -- 34
2020-09-06 12:00:00 27.9 7 Nordeste 14 Sudeste 0 950.6 -- 38
2020-09-06 11:00:00 26.2 6 Este 14 Nordeste 0 950.6 -- 41
2020-09-06 10:00:00 24.3 4 Nordeste 8 Nordeste 0 950.5 -- 49
2020-09-06 09:00:00 21.8 3 Nordeste 6 Sudeste 0 950.5 -- 52
2020-09-06 08:00:00 19.6 4 Sudoeste 9 Sudoeste 0 950.3 -- 60
2020-09-06 07:00:00 20.1 4 Sudeste 8 Sur 0 949.7 -- 58
2020-09-06 06:00:00 20.7 0 Calma 8 Sudeste 0 949.8 -- 51
2020-09-06 05:00:00 22.3 4 Sur 16 Noroeste 0 949.9 -- 49
2020-09-06 04:00:00 24 10 Oeste 28 Sur 0 950.1 -- 43
2020-09-06 03:00:00 25.5 18 Sur 34 Sur 0 950.1 -- 45
2020-09-06 02:00:00 25.9 19 Sur 33 Sur 0 950.5 -- 45
2020-09-06 01:00:00 26.9 18 Sur 30 Sur 0 950.6 -- 40
2020-09-06 00:00:00 27.2 13 Sudeste 25 Sudeste 0 950.3 -- 34
2020-09-05 23:00:00 27.8 6 Sur 15 Sudoeste 0 949.9 -- 29
2020-09-05 22:00:00 28.6 9 Sudoeste 14 Sudoeste 0 949.6 -- 27
2020-09-05 21:00:00 29 8 Sudoeste 11 Sudoeste 0 949 -- 26
2020-09-05 20:00:00 31.3 6 Oeste -- -- 0 948.9 -- 23
2020-09-05 19:00:00 32.3 -- -- -- -- 0 949.2 -- 23
2020-09-05 18:00:00 33.3 -- -- -- -- 0 949.6 -- 22
2020-09-05 17:00:00 33.6 8 Norte 26 Noroeste 0 950.1 -- 21
2020-09-05 16:00:00 33.5 9 Norte 19 Norte 0 950.9 -- 21
2020-09-05 15:00:00 32.9 7 Norte 15 Norte 0 951.7 -- 25
2020-09-05 14:00:00 31.3 7 Norte 18 Norte 0 952.3 -- 29
2020-09-05 13:00:00 29.4 6 Norte 13 Nordeste 0 952.9 -- 34
2020-09-05 12:00:00 27.6 5 Norte 10 Noroeste 0 953.4 -- 39
2020-09-05 11:00:00 25.9 6 Este 13 Este 0 953.5 -- 43
2020-09-05 10:00:00 23.7 6 Este 13 Este 0 953.5 -- 49
2020-09-05 09:00:00 21 6 Este 9 Este 0 953.5 -- 60
2020-09-05 08:00:00 18.7 2 Noroeste 8 Nordeste 0 953.3 -- 65
2020-09-05 07:00:00 19.1 0 Calma 10 Sudeste 0 953.2 -- 58
2020-09-05 06:00:00 19.1 3 Sudeste 6 Sudoeste 0 953.3 -- 59
2020-09-05 05:00:00 20.3 4 Oeste 10 Sudoeste 0 953.5 -- 53
2020-09-05 04:00:00 23.3 6 Sudeste 15 Sur 0 953.8 -- 50
2020-09-05 03:00:00 24.3 9 Sur 17 Sudeste 0 954.1 -- 47
2020-09-05 02:00:00 25.2 8 Sudeste 24 Sudeste 0 954.2 -- 43
2020-09-05 01:00:00 25.9 13 Sudeste 25 Sur 0 954.4 -- 41
2020-09-05 00:00:00 25.4 12 Sur 17 Sur 0 954.2 -- 32
2020-09-04 23:00:00 26.3 4 Sur 19 Sudoeste 0 954 -- 27
2020-09-04 22:00:00 27.6 10 Oeste 22 Oeste 0 953.3 -- 25
2020-09-04 21:00:00 28.2 5 Sudoeste 9 Oeste 0 952.8 -- 22
2020-09-04 20:00:00 31.1 4 Oeste 14 Noroeste 0 952.6 -- 20
2020-09-04 19:00:00 32.1 9 Noroeste 13 Norte 0 952.7 -- 19
2020-09-04 18:00:00 33 6 Norte -- -- 0 952.9 -- 18
2020-09-04 17:00:00 33.5 5 Norte 18 Norte 0 953.3 -- 17
2020-09-04 16:00:00 33.1 5 Nordeste 19 Noroeste 0 953.9 -- 17
2020-09-04 15:00:00 32.6 12 Noroeste 21 Norte 0 954.6 -- 17
2020-09-04 14:00:00 31.2 7 Nordeste 18 Sudeste 0 955 -- 17
2020-09-04 13:00:00 30.2 5 Nordeste 18 Sudeste 0 955.6 -- 21
2020-09-04 12:00:00 28.7 8 Este 21 Sudeste 0 955.9 -- 23
2020-09-04 11:00:00 26.6 12 Sudeste 35 Este 0 955.9 -- 26
2020-09-04 10:00:00 24.9 21 Sudeste 32 Sudeste 0 955.4 -- 31
2020-09-04 09:00:00 23.7 10 Sudeste 32 Sudeste 0 955 -- 35
2020-09-04 08:00:00 23.2 22 Sudeste 40 Sudeste 0 954.6 -- 37
2020-09-04 07:00:00 23.4 18 Sudeste 35 Sudeste 0 954.3 -- 36
2020-09-04 06:00:00 23.4 15 Sudeste 39 Sudeste 0 954.4 -- 39
2020-09-04 05:00:00 23.8 15 Sudeste 55 Sudeste 0 954.2 -- 38
2020-09-04 04:00:00 24.1 26 Sudeste 44 Sudeste 0 954.5 -- 40
2020-09-04 03:00:00 24.6 18 Sudeste 35 Sudeste 0 954.9 -- 37
2020-09-04 02:00:00 24.6 17 Sudeste 39 Sudeste 0 955.4 -- 38
2020-09-04 01:00:00 24.9 28 Sudeste 48 Sudeste 0 955.5 -- 41
2020-09-04 00:00:00 25.8 22 Sudeste 45 Sudeste 0 955.1 -- 39
2020-09-03 23:00:00 26.9 26 Sudeste 52 Sudeste 0 954.2 -- 34
2020-09-03 22:00:00 28.1 20 Sudeste 34 Sudeste 0 953.4 -- 30
2020-09-03 21:00:00 29.3 14 Sudeste 24 Sudeste 0 952.9 -- 23
2020-09-03 20:00:00 31.1 6 Norte -- -- 0 952.1 -- 20
2020-09-03 19:00:00 32.1 -- -- -- -- 0 952.2 -- 19
2020-09-03 18:00:00 33.1 -- -- -- -- 0 952.2 -- 18
2020-09-03 17:00:00 32.8 10 Noroeste 24 Norte 0 952.4 -- 20
2020-09-03 16:00:00 32.5 8 Este 23 Sudeste 0 952.9 -- 22
2020-09-03 15:00:00 32.1 9 Norte 20 Nordeste 0 953.3 -- 24
2020-09-03 14:00:00 30.8 4 Nordeste 17 Nordeste 0 953.7 -- 26
2020-09-03 13:00:00 29.6 5 Este 12 Nordeste 0 954.1 -- 30
2020-09-03 12:00:00 27.7 5 Este 15 Sudeste 0 954.4 -- 34
2020-09-03 11:00:00 25.8 10 Sudeste 18 Sudeste 0 954.4 -- 38
2020-09-03 10:00:00 23.8 10 Sudeste 17 Este 0 953.9 -- 44
2020-09-03 09:00:00 -- -- -- -- -- -- -- -- --
2020-09-03 08:00:00 19.5 2 Sur 15 Sur 0 953 -- 56
2020-09-03 07:00:00 21 9 Sudeste 17 Sudeste 0 952.4 -- 53
2020-09-03 06:00:00 21 8 Sur 14 Sur 0 952.1 -- 54
2020-09-03 05:00:00 20.4 2 Sudeste 18 Sur 0 952.2 -- 46
2020-09-03 04:00:00 21.7 11 Sur 17 Sur 0 952 -- 46
2020-09-03 03:00:00 23.4 4 Noroeste 26 Sur 0 952 -- 34
2020-09-03 02:00:00 24 17 Sur 27 Sur 0 951.7 -- 36
2020-09-03 01:00:00 23.5 9 Sur 17 Sur 0 951.7 -- 35
2020-09-03 00:00:00 24.5 4 Sudeste 12 Oeste 0 951.2 -- 29
2020-09-02 23:00:00 26.5 9 Sudoeste 21 Sudoeste 0 950.4 -- 26
2020-09-02 22:00:00 26.7 10 Oeste 17 Oeste 0 949.9 -- 23
2020-09-02 21:00:00 26.2 9 Sudoeste 12 Oeste 0 949.1 -- 21
2020-09-02 20:00:00 29.5 6 Oeste 17 Norte 0 948.7 -- 17
2020-09-02 19:00:00 30.4 8 Noroeste 21 Oeste 0 948.4 -- 16
2020-09-02 18:00:00 31.4 11 Norte 22 Norte 0 948.2 -- 16
2020-09-02 17:00:00 31.6 6 Este 21 Norte 0 948.1 -- 16
2020-09-02 16:00:00 31.5 11 Noroeste 23 Norte 0 948.3 -- 18
2020-09-02 15:00:00 30.3 8 Noroeste 20 Norte 0 948.6 -- 22
2020-09-02 14:00:00 29.7 7 Norte 17 Norte 0 949 -- 24
2020-09-02 13:00:00 27.8 6 Norte 14 Nordeste 0 949.3 -- 29
2020-09-02 12:00:00 26 4 Este 12 Este 0 949.4 -- 31
2020-09-02 11:00:00 23.7 4 Norte 10 Nordeste 0 949.2 -- 36
2020-09-02 10:00:00 21.8 3 Nordeste 12 Este 0 948.5 -- 37
2020-09-02 09:00:00 20.8 8 Este 14 Sudeste 0 948.2 -- 38
2020-09-02 08:00:00 17.3 0 Calma 7 Sudoeste 0 947.9 -- 46
2020-09-02 07:00:00 18 3 Sur 7 Sudoeste 0 947.5 -- 42
2020-09-02 06:00:00 19.2 0 Calma 5 Sur 0 947.3 -- 39
2020-09-02 05:00:00 19.7 2 Sudoeste 6 Sur 0 947.2 -- 40
2020-09-02 04:00:00 20.4 2 Oeste 10 Sur 0 947 -- 39
2020-09-02 03:00:00 21.1 3 Noroeste 17 Oeste 0 947 -- 39
2020-09-02 02:00:00 22.9 9 Oeste 22 Oeste 0 947 -- 32
2020-09-02 01:00:00 23.5 14 Oeste 23 Oeste 0 946.9 -- 32
2020-09-02 00:00:00 24 9 Oeste 16 Oeste 0 947 -- 33
2020-09-01 23:00:00 23.7 9 Oeste 14 Oeste 0 946.7 -- 36
2020-09-01 22:00:00 23.9 8 Sudoeste 11 Sudoeste 0 946.4 -- 35
2020-09-01 21:00:00 24.5 6 Sudoeste 9 Norte 0 945.9 -- 34
2020-09-01 20:00:00 26.4 5 Noroeste 22 Noroeste 0 945.8 -- 30
2020-09-01 19:00:00 27.2 8 Noroeste 23 Norte 0 946 -- 28
2020-09-01 18:00:00 27.6 8 Norte 19 Noroeste 0 946 -- 28
2020-09-01 17:00:00 27.8 8 Noroeste 23 Norte 0 946.4 -- 29
2020-09-01 16:00:00 26.2 9 Noroeste 25 Norte 0 947.2 -- 35
2020-09-01 15:00:00 24.9 9 Norte 25 Norte 0 947.6 -- 39
2020-09-01 14:00:00 24.6 10 Norte 16 Norte 0 948.1 -- 40
2020-09-01 13:00:00 22.8 5 Este 12 Sudeste 0 948.4 -- 45
2020-09-01 12:00:00 23 4 Nordeste 10 Nordeste 0 949.2 -- 44
2020-09-01 11:00:00 22.1 5 Este 10 Este 0 948.9 -- 44
2020-09-01 10:00:00 20.3 5 Este 15 Sudeste 0 948.7 -- 48
2020-09-01 09:00:00 19.2 2 Noroeste 9 Oeste 0 948.7 -- 49
2020-09-01 08:00:00 18.1 0 Calma 17 Este 0 948.3 -- 50
2020-09-01 07:00:00 19.3 12 Sudeste 18 Sudeste 0 948.3 -- 48
2020-09-01 06:00:00 17.5 3 Sur 6 Sur 0 948.5 -- 52
2020-09-01 05:00:00 18.7 2 Sur 13 Oeste 0 948.8 -- 45
2020-09-01 04:00:00 20.3 8 Oeste 16 Oeste 0 949.1 -- 39
2020-09-01 03:00:00 21 0 Calma 19 Sur 0 949.4 -- 35
2020-09-01 02:00:00 21 9 Sur 16 Sur 0 950 -- 30
2020-09-01 01:00:00 21.8 4 Sur 10 Sur 0 950.2 -- 27
2020-09-01 00:00:00 22.8 0 Calma 10 Sudoeste 0 949.5 -- 25
2020-08-31 23:00:00 23.3 7 Sudoeste 9 Sudoeste 0 949.1 -- 23
2020-08-31 22:00:00 23.3 5 Sudoeste 9 Sudoeste 0 949 -- 22
2020-08-31 21:00:00 25.3 5 Sudoeste 15 Norte 0 948.5 -- 19
2020-08-31 20:00:00 28.1 8 Norte 19 Nordeste 0 948.3 -- 18
2020-08-31 19:00:00 29.2 9 Norte 24 Noroeste 0 948.6 -- 19
2020-08-31 18:00:00 30.5 11 Noroeste 24 Noroeste 0 948.8 -- 20
2020-08-31 17:00:00 30.3 6 Este 23 Norte 0 949.2 -- 21
2020-08-31 16:00:00 30 -- -- -- -- 0 949.9 -- 21
2020-08-31 15:00:00 29.8 6 Norte 18 Noroeste 0 950.6 -- 22
2020-08-31 14:00:00 28.5 6 Nordeste -- -- 0 951.2 -- 24
2020-08-31 13:00:00 27.1 6 Norte 14 Nordeste 0 951.9 -- 30
2020-08-31 12:00:00 25 5 Nordeste 13 Nordeste 0 952.2 -- 37
2020-08-31 11:00:00 22.6 4 Nordeste 8 Norte 0 952 -- 42
2020-08-31 10:00:00 20.3 4 Norte 9 Norte 0 951.5 -- 46
2020-08-31 09:00:00 18.5 5 Norte 20 Sudeste 0 951.2 -- 50
2020-08-31 08:00:00 19.4 11 Sur 26 Sudeste 0 950.7 -- 56
2020-08-31 07:00:00 19.5 13 Sudeste 27 Sudeste 0 950.3 -- 55
2020-08-31 06:00:00 19.7 13 Sudeste 23 Sudeste 0 949.8 -- 52
2020-08-31 05:00:00 20.2 13 Sudeste 27 Sudeste 0 949.8 -- 46
2020-08-31 04:00:00 20.1 12 Sudeste -- -- 0 949.9 -- 28
2020-08-31 03:00:00 18.3 4 Sur 10 Sur 0 950.1 -- 28
2020-08-31 02:00:00 20.1 5 Sur 11 Sudeste 0 950.4 -- 25
2020-08-31 01:00:00 20.3 4 Sur 11 Sur 0 950.3 -- 25
2020-08-31 00:00:00 20.3 4 Sur 9 Sudeste 0 950 -- 25
2020-08-30 23:00:00 21.5 5 Sudeste 11 Sur 0 949.4 -- 24
2020-08-30 22:00:00 22.6 3 Oeste 13 Nordeste 0 948.4 -- 23
2020-08-30 21:00:00 23.6 5 Sudoeste 12 Norte 0 947 -- 21
2020-08-30 20:00:00 25.9 6 Noroeste 17 Noroeste 0 946.3 -- 18
2020-08-30 19:00:00 26.6 9 Noroeste 26 Noroeste 0 945.9 -- 16
2020-08-30 18:00:00 27.8 12 Norte 26 Noroeste 0 945.7 -- 15
2020-08-30 17:00:00 28.4 9 Norte 24 Noroeste 0 945.8 -- 16
2020-08-30 16:00:00 27.7 10 Norte 23 Norte 0 946.3 -- 18
2020-08-30 15:00:00 27.3 -- -- -- -- 0 946.6 -- 19
2020-08-30 14:00:00 26.1 -- -- -- -- 0 947 -- 20
2020-08-30 13:00:00 24.5 6 Nordeste 17 Nordeste 0 947.4 -- 25
2020-08-30 12:00:00 22.3 6 Este 12 Sudeste 0 947.6 -- 28
2020-08-30 11:00:00 19.2 4 Nordeste 8 Nordeste 0 947.5 -- 33
2020-08-30 10:00:00 18.5 4 Norte 7 Norte 0 947.1 -- 34
2020-08-30 09:00:00 17.7 0 Calma 8 Sur 0 946.6 -- 37
2020-08-30 08:00:00 17.1 5 Sudeste 10 Sur 0 946.3 -- 37
2020-08-30 07:00:00 16.8 5 Sur 10 Sudeste 0 945.9 -- 37
2020-08-30 06:00:00 17.4 4 Sur 12 Sudeste 0 945.8 -- 35
2020-08-30 05:00:00 17.9 5 Sudeste 12 Este 0 945.8 -- 34
2020-08-30 04:00:00 17.9 4 Sur 11 Sudeste 0 945.7 -- 33
2020-08-30 03:00:00 18.5 3 Sudoeste 11 Norte 0 945.6 -- 29
2020-08-30 02:00:00 20.2 6 Sudeste 12 Sudeste 0 945.4 -- 26
2020-08-30 01:00:00 20.3 7 Sur 12 Este 0 945.1 -- 25
2020-08-30 00:00:00 20.5 5 Sur 12 Sur 0 944.7 -- 26
2020-08-29 23:00:00 21.2 6 Sur 10 Sudoeste 0 944.2 -- 24
2020-08-29 22:00:00 22.3 4 Oeste 16 Norte 0 943.2 -- 22
2020-08-29 21:00:00 24.3 8 Norte 19 Norte 0 942.1 -- 20
2020-08-29 20:00:00 25.5 13 Norte 23 Norte 0 941.4 -- 23
2020-08-29 19:00:00 26 9 Oeste 27 Noroeste 0 941.3 -- 24
2020-08-29 18:00:00 26.7 7 Noroeste 28 Norte 0 941.1 -- 23
2020-08-29 17:00:00 27 -- -- 33 Noroeste 0 941.2 -- 20
2020-08-29 16:00:00 25.9 14 Noroeste 32 Noroeste 0 941.4 -- 20
2020-08-29 15:00:00 24.4 17 Noroeste 35 Norte 0 941.6 -- 28
2020-08-29 14:00:00 23.7 20 Noroeste 34 Noroeste 0 941.7 -- 31
2020-08-29 13:00:00 22.5 23 Noroeste 39 Noroeste 0 941.8 -- 35
2020-08-29 12:00:00 21.7 23 Noroeste 42 Noroeste 0 941.5 -- 39
2020-08-29 11:00:00 21 21 Noroeste 35 Noroeste 0 941.2 -- 41
2020-08-29 10:00:00 21.1 8 Este 22 Noroeste 0 941.1 -- 35
2020-08-29 09:00:00 18.8 9 Noroeste 19 Noroeste 0 941 -- 41
2020-08-29 08:00:00 17.7 5 Sur 21 Sudoeste 0 940.7 -- 36
2020-08-29 07:00:00 18.7 10 Oeste 20 Oeste 0 940.9 -- 37
2020-08-29 06:00:00 18.7 8 Oeste 20 Noroeste 0 940.5 -- 34
2020-08-29 05:00:00 20 14 Oeste 22 Oeste 0 940.9 -- 29
2020-08-29 04:00:00 21.3 5 Oeste 19 Noroeste 0 941 -- 23
2020-08-29 03:00:00 22.5 8 Noroeste 22 Oeste 0 941.3 -- 19
2020-08-29 02:00:00 24.1 11 Oeste 23 Oeste 0 941.6 -- 15
2020-08-29 01:00:00 25.2 14 Oeste 25 Oeste 0 941.7 -- 17
2020-08-29 00:00:00 26.3 13 Oeste 26 Oeste 0 941.8 -- 27
2020-08-28 23:00:00 27.6 16 Oeste 32 Oeste 0 942 -- 43
2020-08-28 22:00:00 28.2 9 Oeste 21 Oeste 0 941.8 -- 34
2020-08-28 21:00:00 29.5 13 Oeste 34 Noroeste 0 941.5 -- 30
2020-08-28 20:00:00 31 -- -- -- -- 0 941.5 -- 28
2020-08-28 19:00:00 32.2 -- -- -- -- 0 941.7 -- 25
2020-08-28 18:00:00 32.5 20 Oeste 40 Noroeste 0 941.9 -- 29
2020-08-28 17:00:00 33.1 16 Noroeste 37 Noroeste 0 942.5 -- 27
2020-08-28 16:00:00 32.9 17 Oeste 41 Noroeste 0 942.9 -- 29
2020-08-28 15:00:00 32.3 18 Noroeste 38 Noroeste 0 943.7 -- 30
2020-08-28 14:00:00 32 18 Noroeste 38 Oeste 0 944.3 -- 29
2020-08-28 13:00:00 31.4 16 Oeste 35 Noroeste 0 945.1 -- 30
2020-08-28 12:00:00 30.2 8 Sudeste 16 Este 0 945.4 -- 35
2020-08-28 11:00:00 27.8 7 Noroeste 14 Noroeste 0 945.6 -- 38
2020-08-28 10:00:00 25.9 3 Norte 8 Norte 0 945.5 -- 37
2020-08-28 09:00:00 24.5 4 Norte 8 Norte 0 945.7 -- 40
2020-08-28 08:00:00 23.4 4 Sudoeste 9 Sudoeste 0 945.5 -- 42
2020-08-28 07:00:00 24.4 2 Sudeste 8 Sur 0 945.4 -- 42
2020-08-28 06:00:00 25.8 5 Sudeste 9 Este 0 945.5 -- 40
2020-08-28 05:00:00 26.9 5 Sudoeste 13 Sudoeste 0 945.9 -- 38
2020-08-28 04:00:00 28.5 7 Sudoeste 23 Sudoeste 0 946.6 -- 33
2020-08-28 03:00:00 29.3 10 Oeste 34 Oeste 0 946.9 -- 32
2020-08-28 02:00:00 29.3 14 Oeste 30 Sudoeste 0 947.3 -- 26
2020-08-28 01:00:00 29.7 3 Norte 19 Sudoeste 0 947.7 -- 24
2020-08-28 00:00:00 30.2 5 Oeste 23 Oeste 0 948 -- 22
2020-08-27 23:00:00 31.4 12 Oeste 26 Oeste 0 948.2 -- 22
2020-08-27 22:00:00 32.1 13 Sudoeste 24 Sudoeste 0 948 -- 16
2020-08-27 21:00:00 33 12 Oeste 28 Oeste 0 947.9 -- 15
2020-08-27 20:00:00 35.2 17 Oeste -- -- 0 947.8 -- 13
2020-08-27 19:00:00 36.8 -- -- -- -- 0 948 -- 11
2020-08-27 18:00:00 37.8 -- -- -- -- 0 948.5 -- 11
2020-08-27 17:00:00 38.2 16 Noroeste 34 Noroeste 0 948.9 -- 14
2020-08-27 16:00:00 37.8 20 Noroeste 35 Noroeste 0 949.6 -- 16
2020-08-27 15:00:00 37.8 17 Noroeste 28 Noroeste 0 950.4 -- 17
2020-08-27 14:00:00 36.4 7 Nordeste 18 Nordeste 0 951.4 -- 23
2020-08-27 13:00:00 34.7 6 Norte 18 Noroeste 0 952.1 -- 25
2020-08-27 12:00:00 33 6 Nordeste 12 Nordeste 0 952.5 -- 26
2020-08-27 11:00:00 30.9 4 Nordeste 8 Nordeste 0 952.5 -- 29
2020-08-27 10:00:00 28.7 4 Norte 6 Nordeste 0 952.4 -- 34
2020-08-27 09:00:00 26.1 3 Oeste 4 Oeste 0 952.4 -- 40
2020-08-27 08:00:00 24.7 3 Oeste 7 Oeste 0 952.3 -- 41
2020-08-27 07:00:00 25.6 5 Oeste 9 Oeste 0 952.2 -- 37
2020-08-27 06:00:00 25.9 3 Sudoeste 7 Sudoeste 0 951.9 -- 35
2020-08-27 05:00:00 27.1 3 Sudoeste 8 Sur 0 952.3 -- 35
2020-08-27 04:00:00 28.5 4 Noroeste 13 Oeste 0 952.7 -- 32
2020-08-27 03:00:00 29.2 4 Noroeste 12 Este 0 952.9 -- 31
2020-08-27 02:00:00 30.9 8 Sur 34 Oeste 0 952.9 -- 29
2020-08-27 01:00:00 31.7 21 Oeste 36 Oeste 0 952.8 -- 28
2020-08-27 00:00:00 32.5 18 Oeste 34 Oeste 0 952.8 -- 22
2020-08-26 23:00:00 32.5 14 Oeste 23 Oeste 0 952.7 -- 22
2020-08-26 22:00:00 32.7 10 Sudoeste 23 Sudoeste 0 951.9 -- 21
2020-08-26 21:00:00 32.6 6 Oeste -- -- 0 951.3 -- 20
2020-08-26 20:00:00 35.6 -- -- -- -- 0 951.2 -- 20
2020-08-26 19:00:00 36.5 -- -- -- -- 0 951.2 -- 17
2020-08-26 18:00:00 37.5 -- -- -- -- 0 951.2 -- 15
2020-08-26 17:00:00 37.8 12 Noroeste -- -- 0 951.6 -- 15
2020-08-26 16:00:00 37.1 13 Norte 27 Noroeste 0 951.9 -- 19
2020-08-26 15:00:00 36.5 13 Noroeste -- -- 0 952.4 -- 25
2020-08-26 14:00:00 35 12 Noroeste 21 Norte 0 952.8 -- 27
2020-08-26 13:00:00 33.4 5 Norte 12 Norte 0 953.3 -- 31
2020-08-26 12:00:00 30.8 5 Norte 10 Sudeste 0 953.5 -- 38
2020-08-26 11:00:00 28.8 4 Sudeste 9 Sudeste 0 953.3 -- 38
2020-08-26 10:00:00 26.6 5 Norte 9 Noroeste 0 952.9 -- 42
2020-08-26 09:00:00 25.4 3 Nordeste 6 Sudeste 0 952.4 -- 45
2020-08-26 08:00:00 22.8 4 Sur 6 Sur 0 952.3 -- 49
2020-08-26 07:00:00 23.5 4 Sur 8 Noroeste 0 952.1 -- 46
2020-08-26 06:00:00 23.8 0 Calma 10 Nordeste 0 951.7 -- 45
2020-08-26 05:00:00 24.9 2 Sur 10 Nordeste 0 951.7 -- 39
2020-08-26 04:00:00 25.8 3 Sur 7 Sudoeste 0 951.5 -- 37
2020-08-26 03:00:00 27.2 2 Sudoeste 13 Sur 0 951.7 -- 34
2020-08-26 02:00:00 28.5 3 Sur 14 Oeste 0 951.6 -- 31
2020-08-26 01:00:00 30.5 7 Sudoeste 14 Sudoeste 0 951.3 -- 28
2020-08-26 00:00:00 30.3 7 Sudoeste 15 Sudoeste 0 951 -- 26
2020-08-25 23:00:00 31 10 Sudoeste 16 Oeste 0 950.6 -- 24
2020-08-25 22:00:00 31.6 9 Oeste 15 Oeste 0 949.8 -- 25
2020-08-25 21:00:00 32.6 10 Oeste 20 Noroeste 0 948.8 -- 25
2020-08-25 20:00:00 34.7 13 Noroeste -- -- 0 948.4 -- 24
2020-08-25 19:00:00 35.6 -- -- -- -- 0 948.4 -- 24
2020-08-25 18:00:00 36.3 -- -- -- -- 0 948.5 -- 23
2020-08-25 17:00:00 36.7 -- -- -- -- 0 948.7 -- 25
2020-08-25 16:00:00 35.9 6 Nordeste 19 Norte 0 949.1 -- 30
2020-08-25 15:00:00 34.9 7 Noroeste 17 Noroeste 0 949.9 -- 33
2020-08-25 14:00:00 33.2 8 Norte 14 Norte 0 950.3 -- 37
2020-08-25 13:00:00 30.9 4 Nordeste 15 Nordeste 0 950.7 -- 43
2020-08-25 12:00:00 29.3 5 Este 13 Este 0 951.1 -- 47
2020-08-25 11:00:00 27.1 5 Este 14 Este 0 950.9 -- 54
2020-08-25 10:00:00 25.8 5 Nordeste 13 Este 0 950.7 -- 51
2020-08-25 09:00:00 24.1 8 Este 14 Sudeste 0 950.5 -- 59
2020-08-25 08:00:00 22.4 6 Sudeste 12 Este 0 950.3 -- 64
2020-08-25 07:00:00 22.6 6 Sudeste 9 Sudeste 0 949.9 -- 57
2020-08-25 06:00:00 22.8 2 Sudoeste 5 Sudoeste 0 949.9 -- 53
2020-08-25 05:00:00 23.8 3 Sur 8 Sudoeste 0 949.9 -- 52
2020-08-25 04:00:00 25.3 6 Sur 15 Sur 0 949.9 -- 43
2020-08-25 03:00:00 26 7 Sur 15 Noroeste 0 949.6 -- 42
2020-08-25 02:00:00 28 9 Sur 15 Sur 0 949.6 -- 37
2020-08-25 01:00:00 28.2 4 Sudoeste 8 Sudoeste 0 949.2 -- 35
2020-08-25 00:00:00 29.8 7 Sudoeste 20 Sudoeste 0 949.1 -- 33
2020-08-24 23:00:00 29.9 11 Sudoeste 19 Oeste 0 949 -- 33
2020-08-24 22:00:00 30.3 10 Oeste 15 Oeste 0 948.4 -- 30
2020-08-24 21:00:00 31.5 11 Oeste 18 Noroeste 0 947.9 -- 25
2020-08-24 20:00:00 33.6 8 Noroeste 21 Noroeste 0 947.6 -- 23
2020-08-24 19:00:00 34.5 10 Norte 23 Noroeste 0 947.8 -- 21
2020-08-24 18:00:00 35.2 12 Norte 30 Noroeste 0 948 -- 18
2020-08-24 17:00:00 35.8 12 Noroeste 25 Norte 0 948.4 -- 19
2020-08-24 16:00:00 34.9 12 Noroeste 23 Noroeste 0 948.9 -- 21
2020-08-24 15:00:00 34.1 8 Norte 17 Norte 0 949.3 -- 24
2020-08-24 14:00:00 32.8 8 Norte 15 Norte 0 949.9 -- 24
2020-08-24 13:00:00 31.4 5 Nordeste 15 Norte 0 950.7 -- 28
2020-08-24 12:00:00 29.2 7 Este 13 Este 0 951.1 -- 29
2020-08-24 11:00:00 27.7 5 Nordeste 11 Nordeste 0 951.4 -- 33
2020-08-24 10:00:00 26.5 6 Este 17 Este 0 950.8 -- 42
2020-08-24 09:00:00 24 3 Norte 11 Oeste 0 950.9 -- 30
2020-08-24 08:00:00 21.2 3 Oeste 7 Sur 0 950.3 -- 36
2020-08-24 07:00:00 21.3 3 Sudoeste 7 Oeste 0 950.1 -- 30
2020-08-24 06:00:00 22.4 3 Sudoeste 8 Oeste 0 950.1 -- 27
2020-08-24 05:00:00 23.5 6 Sudoeste 9 Sur 0 949.8 -- 24
2020-08-24 04:00:00 23.7 3 Sur 9 Sudoeste 0 949.8 -- 22
2020-08-24 03:00:00 25.3 4 Sur 10 Sur 0 949.9 -- 20
2020-08-24 02:00:00 27 3 Norte 19 Oeste 0 950.1 -- 17
2020-08-24 01:00:00 29.7 12 Oeste 25 Oeste 0 950.1 -- 14
2020-08-24 00:00:00 30.1 7 Sudoeste 19 Oeste 0 950.2 -- 11
2020-08-23 23:00:00 30.6 10 Oeste 28 Sudoeste 0 950.2 -- 12
2020-08-23 22:00:00 31.6 15 Sudoeste 28 Sudoeste 0 949.9 -- 13
2020-08-23 21:00:00 31.8 8 Sudoeste 24 Oeste 0 949.8 -- 12
2020-08-23 20:00:00 34.2 15 Noroeste 30 Noroeste 0 949.6 -- 10
2020-08-23 19:00:00 35.2 15 Noroeste 30 Noroeste 0 949.8 -- 12
2020-08-23 18:00:00 36.4 14 Noroeste 34 Noroeste 0 949.7 -- 12
2020-08-23 17:00:00 36.5 17 Noroeste 41 Noroeste 0 950.1 -- 14
2020-08-23 16:00:00 36.3 19 Noroeste 40 Noroeste 0 950.7 -- 18
2020-08-23 15:00:00 35.7 15 Noroeste 28 Norte 0 951.3 -- 19
2020-08-23 14:00:00 35.3 7 Norte 20 Noroeste 0 952 -- 21
2020-08-23 13:00:00 33.3 8 Norte 18 Norte 0 952.7 -- 22
2020-08-23 12:00:00 31.9 9 Norte 15 Norte 0 953.1 -- 24
2020-08-23 11:00:00 29.8 5 Norte 11 Nordeste 0 953.2 -- 26
2020-08-23 10:00:00 28.1 3 Nordeste 6 Nordeste 0 953.2 -- 31
2020-08-23 09:00:00 25.8 2 Norte 11 Sudoeste 0 953.2 -- 32
2020-08-23 08:00:00 23.9 9 Sudoeste 11 Sudoeste 0 952.9 -- 39
2020-08-23 07:00:00 22.9 3 Oeste 6 Sur 0 952.7 -- 43
2020-08-23 06:00:00 23.9 3 Sur 9 Sur 0 952.8 -- 38
2020-08-23 05:00:00 23.9 4 Sur 6 Sur 0 953.2 -- 41
2020-08-23 04:00:00 25 2 Sur 9 Sur 0 953.2 -- 39
2020-08-23 03:00:00 26.4 6 Sur 19 Noroeste 0 953.2 -- 35
2020-08-23 02:00:00 29 8 Oeste 18 Sudoeste 0 953.1 -- 29
2020-08-23 01:00:00 27.7 3 Oeste 17 Oeste 0 953.3 -- 31
2020-08-23 00:00:00 30 8 Oeste 16 Oeste 0 953.3 -- 28
2020-08-22 23:00:00 29.3 6 Sudoeste 11 Sudoeste 0 953.3 -- 25
2020-08-22 22:00:00 30.5 9 Oeste 21 Sudoeste 0 952.8 -- 23
2020-08-22 21:00:00 32 7 Oeste 17 Noroeste 0 952.3 -- 27
2020-08-22 20:00:00 34.1 11 Noroeste 24 Noroeste 0 952.1 -- 27
2020-08-22 19:00:00 34.8 12 Noroeste 28 Noroeste 0 952.1 -- 27
2020-08-22 18:00:00 35.4 16 Noroeste 32 Noroeste 0 952.2 -- 26
2020-08-22 17:00:00 35.4 18 Noroeste 31 Norte 0 952.6 -- 27
2020-08-22 16:00:00 35.5 10 Noroeste 31 Norte 0 953.4 -- 26
2020-08-22 15:00:00 34.2 10 Norte 21 Norte 0 954 -- 31
2020-08-22 14:00:00 33 5 Norte 18 Norte 0 954.5 -- 34
2020-08-22 13:00:00 31.1 6 Norte 17 Noroeste 0 954.9 -- 39
2020-08-22 12:00:00 29.8 9 Norte 15 Nordeste 0 955.4 -- 44
2020-08-22 11:00:00 27.7 5 Este 10 Sudeste 0 955.1 -- 48
2020-08-22 10:00:00 25.4 5 Norte 9 Norte 0 954.8 -- 50
2020-08-22 09:00:00 24.1 4 Norte 6 Norte 0 954.4 -- 54
2020-08-22 08:00:00 21.5 3 Sudoeste 7 Sur 0 953.8 -- 61
2020-08-22 07:00:00 22.2 4 Sur 12 Oeste 0 953.5 -- 56
2020-08-22 06:00:00 22.6 4 Oeste 12 Sudoeste 0 953.2 -- 61
2020-08-22 05:00:00 23.1 4 Sur 8 Sudoeste 0 953.1 -- 48
2020-08-22 04:00:00 24.2 2 Sudoeste 13 Sur 0 952.7 -- 51
2020-08-22 03:00:00 24.4 5 Sur 11 Sur 0 952.7 -- 30
2020-08-22 02:00:00 25.3 3 Sudoeste 19 Oeste 0 952.5 -- 28
2020-08-22 01:00:00 27.7 8 Sudoeste 21 Sudoeste 0 952.4 -- 23
2020-08-22 00:00:00 27.9 9 Sudoeste 20 Sudoeste 0 952.3 -- 24
2020-08-21 23:00:00 26.9 3 Sur 13 Sur 0 951.7 -- 21
2020-08-21 22:00:00 28.4 4 Sudeste 11 Oeste 0 951.1 -- 20
2020-08-21 21:00:00 31.2 10 Oeste 23 Oeste 0 950.6 -- 20
2020-08-21 20:00:00 33.4 15 Oeste 31 Oeste 0 950.2 -- 16
2020-08-21 19:00:00 34.6 15 Oeste 36 Noroeste 0 950 -- 11
2020-08-21 18:00:00 35.7 17 Oeste 42 Noroeste 0 949.8 -- 11
2020-08-21 17:00:00 35.2 24 Noroeste 37 Noroeste 0 949.5 -- 10
2020-08-21 16:00:00 35.3 21 Noroeste 37 Noroeste 0 949.7 -- 10
2020-08-21 15:00:00 34.7 16 Noroeste 30 Norte 0 950.3 -- 12
2020-08-21 14:00:00 33.7 11 Norte 25 Norte 0 950.7 -- 15
2020-08-21 13:00:00 31.4 5 Nordeste 13 Noroeste 0 950.7 -- 15
2020-08-21 12:00:00 29.7 5 Nordeste 11 Nordeste 0 950.7 -- 17
2020-08-21 11:00:00 27.1 4 Nordeste 15 Sudeste 0 950.3 -- 18
2020-08-21 10:00:00 25 5 Este 9 Este 0 949.8 -- 20
2020-08-21 09:00:00 22.4 3 Nordeste 7 Sudoeste 0 949.6 -- 23
2020-08-21 08:00:00 19.8 4 Oeste 7 Oeste 0 948.9 -- 24
2020-08-21 07:00:00 20.4 3 Sudeste 6 Sur 0 948.4 -- 23
2020-08-21 06:00:00 21.2 3 Oeste 10 Noroeste 0 948.2 -- 20
2020-08-21 05:00:00 21.7 5 Oeste 9 Oeste 0 947.9 -- 18
2020-08-21 04:00:00 22.9 5 Sur 9 Sur 0 947.8 -- 19
2020-08-21 03:00:00 24.7 3 Sudoeste 18 Sudoeste 0 947.7 -- 17
2020-08-21 02:00:00 28.5 10 Sudoeste 23 Sudoeste 0 947.4 -- 9
2020-08-21 01:00:00 28.9 13 Sudoeste 26 Sudoeste 0 947.2 -- 11
2020-08-21 00:00:00 29.2 12 Oeste 34 Oeste 0 946.5 -- 12